sensor_id;sensor_type;location;lat;lon;timestamp;pressure;altitude;pressure_sealevel;temperature;humidity
76868;BME280;66168;45.478;11.060;2024-01-11T00:00:43;101901.73;;;3.30;60.20
76868;BME280;66168;45.478;11.060;2024-01-11T00:03:11;101899.44;;;3.33;60.17
76868;BME280;66168;45.478;11.060;2024-01-11T00:05:40;101898.39;;;3.33;60.03
76868;BME280;66168;45.478;11.060;2024-01-11T00:08:10;101894.23;;;3.32;60.09
76868;BME280;66168;45.478;11.060;2024-01-11T00:10:37;101891.80;;;3.32;60.10
76868;BME280;66168;45.478;11.060;2024-01-11T00:13:08;101890.48;;;3.33;59.96
76868;BME280;66168;45.478;11.060;2024-01-11T00:15:39;101892.83;;;3.35;59.77
76868;BME280;66168;45.478;11.060;2024-01-11T00:18:08;101890.73;;;3.35;60.08
76868;BME280;66168;45.478;11.060;2024-01-11T00:20:36;101888.58;;;3.35;59.94
76868;BME280;66168;45.478;11.060;2024-01-11T00:23:06;101884.91;;;3.35;59.73
76868;BME280;66168;45.478;11.060;2024-01-11T00:25:33;101881.36;;;3.36;59.74
76868;BME280;66168;45.478;11.060;2024-01-11T00:28:04;101882.25;;;3.36;59.82
76868;BME280;66168;45.478;11.060;2024-01-11T00:30:31;101875.13;;;3.35;59.81
76868;BME280;66168;45.478;11.060;2024-01-11T00:32:58;101875.83;;;3.32;59.81
76868;BME280;66168;45.478;11.060;2024-01-11T00:35:25;101870.60;;;3.32;59.86
76868;BME280;66168;45.478;11.060;2024-01-11T00:37:57;101872.48;;;3.32;60.13
76868;BME280;66168;45.478;11.060;2024-01-11T00:40:24;101867.71;;;3.33;60.04
76868;BME280;66168;45.478;11.060;2024-01-11T00:42:51;101871.31;;;3.34;59.96
76868;BME280;66168;45.478;11.060;2024-01-11T00:45:18;101873.28;;;3.34;59.86
76868;BME280;66168;45.478;11.060;2024-01-11T00:47:45;101868.66;;;3.29;60.20
76868;BME280;66168;45.478;11.060;2024-01-11T00:50:12;101869.88;;;3.27;60.22
76868;BME280;66168;45.478;11.060;2024-01-11T00:52:42;101871.93;;;3.25;60.14
76868;BME280;66168;45.478;11.060;2024-01-11T00:55:11;101871.21;;;3.22;60.31
76868;BME280;66168;45.478;11.060;2024-01-11T00:57:38;101870.45;;;3.20;60.41
76868;BME280;66168;45.478;11.060;2024-01-11T01:00:06;101866.75;;;3.21;60.31
76868;BME280;66168;45.478;11.060;2024-01-11T01:02:33;101865.10;;;3.25;60.29
76868;BME280;66168;45.478;11.060;2024-01-11T01:05:00;101864.89;;;3.25;60.17
76868;BME280;66168;45.478;11.060;2024-01-11T01:07:27;101863.14;;;3.25;60.47
76868;BME280;66168;45.478;11.060;2024-01-11T01:09:54;101865.27;;;3.25;60.37
76868;BME280;66168;45.478;11.060;2024-01-11T01:12:21;101865.11;;;3.25;60.07
76868;BME280;66168;45.478;11.060;2024-01-11T01:14:52;101866.92;;;3.24;60.30
76868;BME280;66168;45.478;11.060;2024-01-11T01:17:31;101865.81;;;3.22;60.58
76868;BME280;66168;45.478;11.060;2024-01-11T01:19:59;101870.48;;;3.20;60.79
76868;BME280;66168;45.478;11.060;2024-01-11T01:22:26;101866.66;;;3.22;60.83
76868;BME280;66168;45.478;11.060;2024-01-11T01:24:56;101864.52;;;3.23;60.95
76868;BME280;66168;45.478;11.060;2024-01-11T01:27:23;101861.66;;;3.24;60.85
76868;BME280;66168;45.478;11.060;2024-01-11T01:29:54;101861.98;;;3.27;60.94
76868;BME280;66168;45.478;11.060;2024-01-11T01:32:24;101858.65;;;3.32;60.68
76868;BME280;66168;45.478;11.060;2024-01-11T01:34:54;101855.89;;;3.34;60.55
76868;BME280;66168;45.478;11.060;2024-01-11T01:37:21;101854.24;;;3.33;60.67
76868;BME280;66168;45.478;11.060;2024-01-11T01:39:58;101856.59;;;3.21;60.26
76868;BME280;66168;45.478;11.060;2024-01-11T01:42:25;101857.09;;;3.00;60.65
76868;BME280;66168;45.478;11.060;2024-01-11T01:44:55;101852.85;;;2.86;61.16
76868;BME280;66168;45.478;11.060;2024-01-11T01:47:22;101860.62;;;2.83;61.63
76868;BME280;66168;45.478;11.060;2024-01-11T01:49:50;101856.46;;;2.79;61.25
76868;BME280;66168;45.478;11.060;2024-01-11T01:52:19;101854.98;;;2.75;61.21
76868;BME280;66168;45.478;11.060;2024-01-11T01:54:48;101853.46;;;2.71;61.79
76868;BME280;66168;45.478;11.060;2024-01-11T01:57:16;101855.89;;;2.69;61.95
76868;BME280;66168;45.478;11.060;2024-01-11T01:59:45;101852.73;;;2.69;61.95
76868;BME280;66168;45.478;11.060;2024-01-11T02:02:16;101851.30;;;2.66;62.39
76868;BME280;66168;45.478;11.060;2024-01-11T02:04:47;101847.45;;;2.64;62.31
76868;BME280;66168;45.478;11.060;2024-01-11T02:07:14;101849.54;;;2.61;62.59
76868;BME280;66168;45.478;11.060;2024-01-11T02:09:42;101842.87;;;2.58;62.58
76868;BME280;66168;45.478;11.060;2024-01-11T02:12:10;101843.40;;;2.56;62.99
76868;BME280;66168;45.478;11.060;2024-01-11T02:14:40;101839.70;;;2.53;63.16
76868;BME280;66168;45.478;11.060;2024-01-11T02:17:07;101836.07;;;2.50;63.42
76868;BME280;66168;45.478;11.060;2024-01-11T02:19:34;101841.20;;;2.52;63.13
76868;BME280;66168;45.478;11.060;2024-01-11T02:22:08;101843.05;;;2.56;63.10
76868;BME280;66168;45.478;11.060;2024-01-11T02:24:42;101844.10;;;2.59;63.12
76868;BME280;66168;45.478;11.060;2024-01-11T02:27:09;101842.95;;;2.55;62.94
76868;BME280;66168;45.478;11.060;2024-01-11T02:29:40;101841.28;;;2.36;63.01
76868;BME280;66168;45.478;11.060;2024-01-11T02:32:07;101842.38;;;2.19;63.01
76868;BME280;66168;45.478;11.060;2024-01-11T02:34:37;101840.80;;;2.13;63.62
76868;BME280;66168;45.478;11.060;2024-01-11T02:37:05;101841.11;;;2.14;64.11
76868;BME280;66168;45.478;11.060;2024-01-11T02:39:33;101838.86;;;2.16;63.99
76868;BME280;66168;45.478;11.060;2024-01-11T02:42:00;101837.66;;;2.19;63.94
76868;BME280;66168;45.478;11.060;2024-01-11T02:44:27;101832.60;;;2.21;63.91
76868;BME280;66168;45.478;11.060;2024-01-11T02:46:54;101828.77;;;2.27;63.54
76868;BME280;66168;45.478;11.060;2024-01-11T02:49:22;101826.44;;;2.33;63.64
76868;BME280;66168;45.478;11.060;2024-01-11T02:51:52;101821.24;;;2.38;63.51
76868;BME280;66168;45.478;11.060;2024-01-11T02:54:22;101818.45;;;2.43;63.34
76868;BME280;66168;45.478;11.060;2024-01-11T02:56:49;101820.17;;;2.47;63.15
76868;BME280;66168;45.478;11.060;2024-01-11T02:59:16;101817.91;;;2.47;63.05
76868;BME280;66168;45.478;11.060;2024-01-11T03:01:43;101817.77;;;2.46;62.97
76868;BME280;66168;45.478;11.060;2024-01-11T03:04:10;101817.05;;;2.46;62.94
76868;BME280;66168;45.478;11.060;2024-01-11T03:06:37;101810.55;;;2.44;63.18
76868;BME280;66168;45.478;11.060;2024-01-11T03:09:05;101809.41;;;2.42;63.18
76868;BME280;66168;45.478;11.060;2024-01-11T03:11:32;101807.10;;;2.43;63.01
76868;BME280;66168;45.478;11.060;2024-01-11T03:13:59;101806.23;;;2.43;63.25
76868;BME280;66168;45.478;11.060;2024-01-11T03:16:29;101800.44;;;2.41;63.45
76868;BME280;66168;45.478;11.060;2024-01-11T03:19:06;101803.21;;;2.38;63.48
76868;BME280;66168;45.478;11.060;2024-01-11T03:21:33;101802.70;;;2.35;63.81
76868;BME280;66168;45.478;11.060;2024-01-11T03:24:00;101801.45;;;2.33;63.96
76868;BME280;66168;45.478;11.060;2024-01-11T03:26:27;101795.71;;;2.32;63.93
76868;BME280;66168;45.478;11.060;2024-01-11T03:28:55;101793.36;;;2.34;63.78
76868;BME280;66168;45.478;11.060;2024-01-11T03:31:22;101789.81;;;2.31;63.81
76868;BME280;66168;45.478;11.060;2024-01-11T03:33:49;101785.70;;;2.27;64.16
76868;BME280;66168;45.478;11.060;2024-01-11T03:36:16;101783.73;;;2.25;63.73
76868;BME280;66168;45.478;11.060;2024-01-11T03:38:46;101780.64;;;2.25;63.90
76868;BME280;66168;45.478;11.060;2024-01-11T03:41:18;101782.38;;;2.24;63.67
76868;BME280;66168;45.478;11.060;2024-01-11T03:43:46;101779.90;;;2.22;63.96
76868;BME280;66168;45.478;11.060;2024-01-11T03:46:16;101782.34;;;2.22;64.15
76868;BME280;66168;45.478;11.060;2024-01-11T03:48:43;101779.46;;;2.24;64.49
76868;BME280;66168;45.478;11.060;2024-01-11T03:51:10;101776.54;;;2.25;64.15
76868;BME280;66168;45.478;11.060;2024-01-11T03:53:37;101778.01;;;2.27;64.36
76868;BME280;66168;45.478;11.060;2024-01-11T03:56:05;101777.88;;;2.29;63.89
76868;BME280;66168;45.478;11.060;2024-01-11T03:58:32;101774.16;;;2.30;64.00
76868;BME280;66168;45.478;11.060;2024-01-11T04:01:00;101776.21;;;2.33;63.94
76868;BME280;66168;45.478;11.060;2024-01-11T04:03:27;101771.00;;;2.38;63.67
76868;BME280;66168;45.478;11.060;2024-01-11T04:05:54;101769.05;;;2.44;63.53
76868;BME280;66168;45.478;11.060;2024-01-11T04:08:21;101768.87;;;2.50;63.26
76868;BME280;66168;45.478;11.060;2024-01-11T04:10:48;101767.55;;;2.54;62.81
76868;BME280;66168;45.478;11.060;2024-01-11T04:13:15;101770.94;;;2.56;62.88
76868;BME280;66168;45.478;11.060;2024-01-11T04:15:42;101769.82;;;2.57;62.48
76868;BME280;66168;45.478;11.060;2024-01-11T04:18:09;101766.14;;;2.57;62.37
76868;BME280;66168;45.478;11.060;2024-01-11T04:20:36;101768.12;;;2.56;62.53
76868;BME280;66168;45.478;11.060;2024-01-11T04:23:03;101766.40;;;2.56;62.71
76868;BME280;66168;45.478;11.060;2024-01-11T04:25:30;101766.48;;;2.54;62.76
76868;BME280;66168;45.478;11.060;2024-01-11T04:27:57;101765.51;;;2.53;62.53
76868;BME280;66168;45.478;11.060;2024-01-11T04:30:24;101762.00;;;2.56;62.31
76868;BME280;66168;45.478;11.060;2024-01-11T04:32:52;101760.14;;;2.60;62.14
76868;BME280;66168;45.478;11.060;2024-01-11T04:35:19;101761.63;;;2.64;62.08
76868;BME280;66168;45.478;11.060;2024-01-11T04:37:49;101758.30;;;2.67;61.95
76868;BME280;66168;45.478;11.060;2024-01-11T04:40:19;101759.76;;;2.72;61.42
76868;BME280;66168;45.478;11.060;2024-01-11T04:42:46;101756.12;;;2.74;61.36
76868;BME280;66168;45.478;11.060;2024-01-11T04:45:13;101758.29;;;2.76;61.50
76868;BME280;66168;45.478;11.060;2024-01-11T04:47:41;101752.98;;;2.76;61.28
76868;BME280;66168;45.478;11.060;2024-01-11T04:50:08;101755.02;;;2.77;61.09
76868;BME280;66168;45.478;11.060;2024-01-11T04:52:35;101756.92;;;2.78;60.87
76868;BME280;66168;45.478;11.060;2024-01-11T04:55:02;101753.52;;;2.76;60.86
76868;BME280;66168;45.478;11.060;2024-01-11T04:57:29;101751.70;;;2.75;61.28
76868;BME280;66168;45.478;11.060;2024-01-11T04:59:56;101753.14;;;2.74;61.27
76868;BME280;66168;45.478;11.060;2024-01-11T05:02:27;101753.54;;;2.73;61.50
76868;BME280;66168;45.478;11.060;2024-01-11T05:04:55;101754.67;;;2.72;61.52
76868;BME280;66168;45.478;11.060;2024-01-11T05:07:22;101753.45;;;2.72;61.51
76868;BME280;66168;45.478;11.060;2024-01-11T05:09:49;101754.64;;;2.73;61.34
76868;BME280;66168;45.478;11.060;2024-01-11T05:12:16;101751.20;;;2.74;61.33
76868;BME280;66168;45.478;11.060;2024-01-11T05:14:43;101749.71;;;2.76;61.14
76868;BME280;66168;45.478;11.060;2024-01-11T05:17:10;101748.84;;;2.73;61.19
76868;BME280;66168;45.478;11.060;2024-01-11T05:19:40;101749.70;;;2.73;61.26
76868;BME280;66168;45.478;11.060;2024-01-11T05:22:08;101746.39;;;2.73;61.08
76868;BME280;66168;45.478;11.060;2024-01-11T05:24:35;101748.39;;;2.74;61.02
76868;BME280;66168;45.478;11.060;2024-01-11T05:27:02;101748.95;;;2.74;61.07
76868;BME280;66168;45.478;11.060;2024-01-11T05:29:29;101751.48;;;2.75;60.98
76868;BME280;66168;45.478;11.060;2024-01-11T05:31:56;101752.39;;;2.75;61.03
76868;BME280;66168;45.478;11.060;2024-01-11T05:34:24;101755.04;;;2.74;61.09
76868;BME280;66168;45.478;11.060;2024-01-11T05:36:51;101751.38;;;2.74;61.05
76868;BME280;66168;45.478;11.060;2024-01-11T05:39:18;101749.70;;;2.73;61.00
76868;BME280;66168;45.478;11.060;2024-01-11T05:41:48;101748.27;;;2.71;61.14
76868;BME280;66168;45.478;11.060;2024-01-11T05:44:15;101751.05;;;2.71;61.30
76868;BME280;66168;45.478;11.060;2024-01-11T05:46:42;101751.42;;;2.71;61.19
76868;BME280;66168;45.478;11.060;2024-01-11T05:49:11;101747.15;;;2.70;60.95
76868;BME280;66168;45.478;11.060;2024-01-11T05:51:41;101742.76;;;2.70;60.95
76868;BME280;66168;45.478;11.060;2024-01-11T05:54:08;101739.58;;;2.70;61.10
76868;BME280;66168;45.478;11.060;2024-01-11T05:56:35;101737.00;;;2.70;61.15
76868;BME280;66168;45.478;11.060;2024-01-11T05:59:02;101737.36;;;2.69;61.11
76868;BME280;66168;45.478;11.060;2024-01-11T06:01:32;101732.67;;;2.71;61.20
76868;BME280;66168;45.478;11.060;2024-01-11T06:03:59;101733.63;;;2.72;61.03
76868;BME280;66168;45.478;11.060;2024-01-11T06:06:26;101732.31;;;2.74;61.03
76868;BME280;66168;45.478;11.060;2024-01-11T06:08:53;101732.60;;;2.75;61.06
76868;BME280;66168;45.478;11.060;2024-01-11T06:11:20;101729.85;;;2.77;60.92
76868;BME280;66168;45.478;11.060;2024-01-11T06:13:47;101731.34;;;2.75;61.02
76868;BME280;66168;45.478;11.060;2024-01-11T06:16:14;101732.25;;;2.72;61.05
76868;BME280;66168;45.478;11.060;2024-01-11T06:18:41;101734.05;;;2.71;61.17
76868;BME280;66168;45.478;11.060;2024-01-11T06:21:08;101734.90;;;2.74;61.20
76868;BME280;66168;45.478;11.060;2024-01-11T06:23:35;101737.17;;;2.77;61.02
76868;BME280;66168;45.478;11.060;2024-01-11T06:26:02;101735.12;;;2.79;61.23
76868;BME280;66168;45.478;11.060;2024-01-11T06:28:29;101733.34;;;2.80;61.22
76868;BME280;66168;45.478;11.060;2024-01-11T06:30:59;101728.42;;;2.80;61.09
76868;BME280;66168;45.478;11.060;2024-01-11T06:33:27;101725.77;;;2.80;61.13
76868;BME280;66168;45.478;11.060;2024-01-11T06:35:55;101724.56;;;2.80;61.25
76868;BME280;66168;45.478;11.060;2024-01-11T06:38:22;101722.64;;;2.80;61.39
76868;BME280;66168;45.478;11.060;2024-01-11T06:40:49;101722.44;;;2.80;61.63
76868;BME280;66168;45.478;11.060;2024-01-11T06:43:16;101724.41;;;2.79;61.44
76868;BME280;66168;45.478;11.060;2024-01-11T06:45:43;101720.98;;;2.79;61.50
76868;BME280;66168;45.478;11.060;2024-01-11T06:48:09;101719.43;;;2.78;61.63
76868;BME280;66168;45.478;11.060;2024-01-11T06:50:36;101720.81;;;2.76;61.97
76868;BME280;66168;45.478;11.060;2024-01-11T06:53:03;101720.32;;;2.72;62.44
76868;BME280;66168;45.478;11.060;2024-01-11T06:55:31;101718.02;;;2.70;62.56
76868;BME280;66168;45.478;11.060;2024-01-11T06:57:58;101715.31;;;2.69;62.79
76868;BME280;66168;45.478;11.060;2024-01-11T07:00:25;101718.02;;;2.68;62.89
76868;BME280;66168;45.478;11.060;2024-01-11T07:02:52;101717.83;;;2.65;62.81
76868;BME280;66168;45.478;11.060;2024-01-11T07:05:20;101712.03;;;2.63;63.13
76868;BME280;66168;45.478;11.060;2024-01-11T07:07:47;101708.64;;;2.61;63.08
76868;BME280;66168;45.478;11.060;2024-01-11T07:10:14;101705.62;;;2.59;63.32
76868;BME280;66168;45.478;11.060;2024-01-11T07:12:42;101702.96;;;2.56;63.41
76868;BME280;66168;45.478;11.060;2024-01-11T07:15:10;101703.58;;;2.55;63.77
76868;BME280;66168;45.478;11.060;2024-01-11T07:17:37;101702.39;;;2.55;63.65
76868;BME280;66168;45.478;11.060;2024-01-11T07:20:04;101706.38;;;2.50;63.79
76868;BME280;66168;45.478;11.060;2024-01-11T07:22:31;101710.55;;;2.48;64.08
76868;BME280;66168;45.478;11.060;2024-01-11T07:24:58;101713.42;;;2.47;64.21
76868;BME280;66168;45.478;11.060;2024-01-11T07:27:25;101710.59;;;2.47;64.37
76868;BME280;66168;45.478;11.060;2024-01-11T07:29:52;101716.16;;;2.53;64.46
76868;BME280;66168;45.478;11.060;2024-01-11T07:32:19;101714.05;;;2.58;64.01
76868;BME280;66168;45.478;11.060;2024-01-11T07:34:46;101714.44;;;2.66;63.99
76868;BME280;66168;45.478;11.060;2024-01-11T07:37:13;101717.45;;;2.71;63.62
76868;BME280;66168;45.478;11.060;2024-01-11T07:39:40;101724.04;;;2.69;63.72
76868;BME280;66168;45.478;11.060;2024-01-11T07:42:07;101726.41;;;2.64;64.17
76868;BME280;66168;45.478;11.060;2024-01-11T07:44:34;101726.88;;;2.63;64.31
76868;BME280;66168;45.478;11.060;2024-01-11T07:47:01;101726.04;;;2.65;64.16
76868;BME280;66168;45.478;11.060;2024-01-11T07:49:28;101725.31;;;2.65;64.32
76868;BME280;66168;45.478;11.060;2024-01-11T07:51:55;101727.27;;;2.65;64.57
76868;BME280;66168;45.478;11.060;2024-01-11T07:54:23;101728.89;;;2.67;64.70
76868;BME280;66168;45.478;11.060;2024-01-11T07:56:49;101727.59;;;2.69;64.72
76868;BME280;66168;45.478;11.060;2024-01-11T07:59:16;101728.95;;;2.69;64.89
76868;BME280;66168;45.478;11.060;2024-01-11T08:01:44;101729.84;;;2.72;64.83
76868;BME280;66168;45.478;11.060;2024-01-11T08:04:12;101728.56;;;2.77;65.05
76868;BME280;66168;45.478;11.060;2024-01-11T08:06:39;101725.77;;;2.83;65.49
76868;BME280;66168;45.478;11.060;2024-01-11T08:09:06;101727.42;;;2.90;65.59
76868;BME280;66168;45.478;11.060;2024-01-11T08:11:34;101728.73;;;2.96;65.67
76868;BME280;66168;45.478;11.060;2024-01-11T08:14:05;101727.92;;;2.98;65.71
76868;BME280;66168;45.478;11.060;2024-01-11T08:16:33;101726.34;;;2.98;65.60
76868;BME280;66168;45.478;11.060;2024-01-11T08:18:59;101726.30;;;2.99;65.90
76868;BME280;66168;45.478;11.060;2024-01-11T08:21:28;101728.02;;;3.07;65.95
76868;BME280;66168;45.478;11.060;2024-01-11T08:23:55;101725.59;;;3.17;66.11
76868;BME280;66168;45.478;11.060;2024-01-11T08:26:28;101729.73;;;3.29;65.53
76868;BME280;66168;45.478;11.060;2024-01-11T08:28:56;101722.28;;;3.38;65.40
76868;BME280;66168;45.478;11.060;2024-01-11T08:31:24;101724.71;;;3.46;65.17
76868;BME280;66168;45.478;11.060;2024-01-11T08:33:51;101726.02;;;3.55;64.84
76868;BME280;66168;45.478;11.060;2024-01-11T08:36:18;101718.41;;;3.60;65.09
76868;BME280;66168;45.478;11.060;2024-01-11T08:38:45;101716.30;;;3.61;65.42
76868;BME280;66168;45.478;11.060;2024-01-11T08:41:12;101717.11;;;3.67;65.10
76868;BME280;66168;45.478;11.060;2024-01-11T08:43:39;101719.48;;;3.75;65.03
76868;BME280;66168;45.478;11.060;2024-01-11T08:46:06;101722.14;;;3.90;64.79
76868;BME280;66168;45.478;11.060;2024-01-11T08:48:33;101722.22;;;4.01;64.44
76868;BME280;66168;45.478;11.060;2024-01-11T08:51:00;101720.67;;;4.11;64.36
76868;BME280;66168;45.478;11.060;2024-01-11T08:53:27;101720.01;;;4.18;64.46
76868;BME280;66168;45.478;11.060;2024-01-11T08:55:54;101723.83;;;4.31;64.14
76868;BME280;66168;45.478;11.060;2024-01-11T08:58:21;101719.16;;;4.40;63.19
76868;BME280;66168;45.478;11.060;2024-01-11T09:00:48;101718.18;;;4.46;63.24
76868;BME280;66168;45.478;11.060;2024-01-11T09:03:15;101716.54;;;4.46;62.53
76868;BME280;66168;45.478;11.060;2024-01-11T09:05:44;101716.45;;;4.46;62.29
76868;BME280;66168;45.478;11.060;2024-01-11T09:08:11;101713.69;;;4.47;62.57
76868;BME280;66168;45.478;11.060;2024-01-11T09:10:38;101711.52;;;4.55;61.85
76868;BME280;66168;45.478;11.060;2024-01-11T09:13:05;101710.50;;;4.69;62.23
76868;BME280;66168;45.478;11.060;2024-01-11T09:15:32;101709.05;;;4.81;61.63
76868;BME280;66168;45.478;11.060;2024-01-11T09:17:59;101713.80;;;4.95;61.12
76868;BME280;66168;45.478;11.060;2024-01-11T09:20:29;101707.65;;;5.05;60.68
76868;BME280;66168;45.478;11.060;2024-01-11T09:22:56;101712.73;;;5.23;61.20
76868;BME280;66168;45.478;11.060;2024-01-11T09:25:23;101709.02;;;5.38;59.32
76868;BME280;66168;45.478;11.060;2024-01-11T09:27:50;101699.29;;;5.45;58.79
76868;BME280;66168;45.478;11.060;2024-01-11T09:30:17;101700.15;;;5.59;59.11
76868;BME280;66168;45.478;11.060;2024-01-11T09:32:44;101701.16;;;5.80;58.89
76868;BME280;66168;45.478;11.060;2024-01-11T09:35:11;101697.42;;;6.01;57.77
76868;BME280;66168;45.478;11.060;2024-01-11T09:37:41;101699.15;;;6.17;57.08
76868;BME280;66168;45.478;11.060;2024-01-11T09:40:10;101701.05;;;6.30;56.90
76868;BME280;66168;45.478;11.060;2024-01-11T09:42:37;101700.84;;;6.48;57.13
76868;BME280;66168;45.478;11.060;2024-01-11T09:45:16;101701.17;;;6.66;55.83
76868;BME280;66168;45.478;11.060;2024-01-11T09:47:44;101699.86;;;6.69;55.91
76868;BME280;66168;45.478;11.060;2024-01-11T09:50:17;101693.48;;;6.77;55.52
76868;BME280;66168;45.478;11.060;2024-01-11T09:52:46;101690.86;;;6.82;54.87
76868;BME280;66168;45.478;11.060;2024-01-11T09:55:15;101685.86;;;6.84;55.48
76868;BME280;66168;45.478;11.060;2024-01-11T09:57:47;101683.78;;;6.88;55.83
76868;BME280;66168;45.478;11.060;2024-01-11T10:00:18;101681.30;;;6.88;56.07
76868;BME280;66168;45.478;11.060;2024-01-11T10:02:46;101678.63;;;6.80;56.00
76868;BME280;66168;45.478;11.060;2024-01-11T10:05:13;101676.11;;;6.89;56.49
76868;BME280;66168;45.478;11.060;2024-01-11T10:07:40;101676.52;;;6.95;56.66
76868;BME280;66168;45.478;11.060;2024-01-11T10:10:08;101672.38;;;7.11;56.47
76868;BME280;66168;45.478;11.060;2024-01-11T10:12:36;101667.06;;;7.27;55.83
76868;BME280;66168;45.478;11.060;2024-01-11T10:15:08;101662.59;;;7.34;55.52
76868;BME280;66168;45.478;11.060;2024-01-11T10:17:43;101659.55;;;7.33;55.11
76868;BME280;66168;45.478;11.060;2024-01-11T10:20:14;101655.05;;;7.32;55.44
76868;BME280;66168;45.478;11.060;2024-01-11T10:22:43;101650.88;;;7.25;55.16
76868;BME280;66168;45.478;11.060;2024-01-11T10:25:15;101650.38;;;7.32;55.45
76868;BME280;66168;45.478;11.060;2024-01-11T10:27:43;101645.34;;;7.52;55.82
76868;BME280;66168;45.478;11.060;2024-01-11T10:30:13;101641.11;;;7.76;55.12
76868;BME280;66168;45.478;11.060;2024-01-11T10:32:43;101643.37;;;7.85;54.72
76868;BME280;66168;45.478;11.060;2024-01-11T10:35:11;101645.41;;;7.94;54.26
76868;BME280;66168;45.478;11.060;2024-01-11T10:37:38;101637.75;;;8.03;54.64
76868;BME280;66168;45.478;11.060;2024-01-11T10:40:07;101640.58;;;8.09;53.93
76868;BME280;66168;45.478;11.060;2024-01-11T10:42:45;101638.98;;;8.03;53.85
76868;BME280;66168;45.478;11.060;2024-01-11T10:45:18;101632.34;;;8.04;54.16
76868;BME280;66168;45.478;11.060;2024-01-11T10:47:54;101632.27;;;8.12;54.56
76868;BME280;66168;45.478;11.060;2024-01-11T10:50:30;101633.55;;;8.18;54.01
76868;BME280;66168;45.478;11.060;2024-01-11T10:55:52;101623.81;;;8.32;53.74
76868;BME280;66168;45.478;11.060;2024-01-11T10:58:20;101619.05;;;8.36;54.04
76868;BME280;66168;45.478;11.060;2024-01-11T11:00:49;101613.15;;;8.31;54.06
76868;BME280;66168;45.478;11.060;2024-01-11T11:03:18;101605.00;;;8.43;55.01
76868;BME280;66168;45.478;11.060;2024-01-11T11:05:48;101600.38;;;8.65;54.96
76868;BME280;66168;45.478;11.060;2024-01-11T11:08:17;101598.20;;;8.59;53.66
76868;BME280;66168;45.478;11.060;2024-01-11T11:10:48;101594.42;;;8.54;53.72
76868;BME280;66168;45.478;11.060;2024-01-11T11:13:15;101589.04;;;8.63;54.52
76868;BME280;66168;45.478;11.060;2024-01-11T11:15:47;101587.36;;;8.70;52.94
76868;BME280;66168;45.478;11.060;2024-01-11T11:18:15;101581.73;;;8.60;53.57
76868;BME280;66168;45.478;11.060;2024-01-11T11:20:43;101576.82;;;8.44;53.81
76868;BME280;66168;45.478;11.060;2024-01-11T11:23:11;101571.41;;;8.37;54.22
76868;BME280;66168;45.478;11.060;2024-01-11T11:25:41;101567.77;;;8.35;53.72
76868;BME280;66168;45.478;11.060;2024-01-11T11:28:11;101566.74;;;8.40;54.91
76868;BME280;66168;45.478;11.060;2024-01-11T11:30:39;101560.73;;;8.38;54.60
76868;BME280;66168;45.478;11.060;2024-01-11T11:33:16;101554.86;;;8.33;54.94
76868;BME280;66168;45.478;11.060;2024-01-11T11:35:48;101551.55;;;8.32;54.89
76868;BME280;66168;45.478;11.060;2024-01-11T11:38:20;101547.08;;;8.33;55.52
76868;BME280;66168;45.478;11.060;2024-01-11T11:40:49;101542.55;;;8.30;55.53
76868;BME280;66168;45.478;11.060;2024-01-11T11:43:18;101542.55;;;8.36;55.52
76868;BME280;66168;45.478;11.060;2024-01-11T11:45:48;101541.66;;;8.43;55.06
76868;BME280;66168;45.478;11.060;2024-01-11T11:51:13;101531.98;;;8.35;54.31
76868;BME280;66168;45.478;11.060;2024-01-11T11:53:47;101530.64;;;8.35;55.01
76868;BME280;66168;45.478;11.060;2024-01-11T11:56:19;101525.20;;;8.30;54.98
76868;BME280;66168;45.478;11.060;2024-01-11T11:58:47;101520.70;;;8.18;55.15
76868;BME280;66168;45.478;11.060;2024-01-11T12:01:17;101516.80;;;8.07;55.18
76868;BME280;66168;45.478;11.060;2024-01-11T12:03:45;101515.42;;;8.04;56.26
76868;BME280;66168;45.478;11.060;2024-01-11T12:06:18;101512.87;;;8.07;56.34
76868;BME280;66168;45.478;11.060;2024-01-11T12:08:47;101512.80;;;8.12;56.14
76868;BME280;66168;45.478;11.060;2024-01-11T12:11:18;101512.29;;;8.23;56.08
76868;BME280;66168;45.478;11.060;2024-01-11T12:13:47;101509.77;;;8.23;55.61
76868;BME280;66168;45.478;11.060;2024-01-11T12:16:14;101509.68;;;8.18;55.46
76868;BME280;66168;45.478;11.060;2024-01-11T12:18:42;101508.02;;;8.19;55.17
76868;BME280;66168;45.478;11.060;2024-01-11T12:21:09;101508.13;;;8.20;55.27
76868;BME280;66168;45.478;11.060;2024-01-11T12:23:38;101503.11;;;8.23;55.19
76868;BME280;66168;45.478;11.060;2024-01-11T12:26:07;101495.77;;;8.28;54.74
76868;BME280;66168;45.478;11.060;2024-01-11T12:28:41;101488.32;;;8.36;54.57
76868;BME280;66168;45.478;11.060;2024-01-11T12:31:12;101489.47;;;8.42;54.24
76868;BME280;66168;45.478;11.060;2024-01-11T12:33:39;101489.88;;;8.48;54.56
76868;BME280;66168;45.478;11.060;2024-01-11T12:36:08;101483.23;;;8.59;54.76
76868;BME280;66168;45.478;11.060;2024-01-11T12:38:36;101477.77;;;8.66;54.48
76868;BME280;66168;45.478;11.060;2024-01-11T12:41:04;101479.45;;;8.70;54.50
76868;BME280;66168;45.478;11.060;2024-01-11T12:43:32;101472.27;;;8.75;53.89
76868;BME280;66168;45.478;11.060;2024-01-11T12:46:01;101469.21;;;8.74;53.75
76868;BME280;66168;45.478;11.060;2024-01-11T12:48:29;101467.91;;;8.63;53.77
76868;BME280;66168;45.478;11.060;2024-01-11T12:50:57;101463.76;;;8.64;54.50
76868;BME280;66168;45.478;11.060;2024-01-11T12:53:40;101458.30;;;8.66;54.66
76868;BME280;66168;45.478;11.060;2024-01-11T12:56:08;101462.52;;;8.64;54.50
76868;BME280;66168;45.478;11.060;2024-01-11T12:58:39;101454.17;;;8.59;54.55
76868;BME280;66168;45.478;11.060;2024-01-11T13:01:06;101443.24;;;8.44;54.35